6TS8 weather

Rabb And Nobra Airport
Industry, Texas, United States

Public forecast

Using degrees Fahrenheit for public forecast. Weather courtesy of forecast.io.

METAR (pilot weather report)

Closest report is Brenham Municipal Airport, 16.8 nm (31.2 km) NE. Retrieved 2019/07/17 11:35 UTC (2 minutes ago):

K11R 171135Z AUTO 16003KT 7SM OVC004 25/25 A3004 RMK AO2 T02540254

TAF (pilot weather forecast)

Closest forecast is Easterwood Field, 36.9 nm (68.3 km) NNE. Retrieved 2019/07/17 06:22 UTC (5 hours ago):

TAF KCLL 170520Z 1706/1806 16008KT P6SM FEW020 FM170900 17006KT P6SM BKN012 FM171500 17011KT P6SM BKN025 FM171700 17014KT P6SM SCT040 FM180100 16009KT P6SM FEW250